createdAt,value
2017-09-21T00:00:06.860Z,82.60
2017-09-21T00:02:34.426Z,86.00
2017-09-21T00:05:02.044Z,86.10
2017-09-21T00:07:28.903Z,86.20
2017-09-21T00:09:55.829Z,86.70
2017-09-21T00:12:23.408Z,87.30
2017-09-21T00:14:50.981Z,87.10
2017-09-21T00:17:17.836Z,87.20
2017-09-21T00:19:44.709Z,87.20
2017-09-21T00:22:12.383Z,87.80
2017-09-21T00:24:39.196Z,87.80
2017-09-21T00:27:06.043Z,87.90
2017-09-21T00:29:32.907Z,87.60
2017-09-21T00:31:59.745Z,87.70
2017-09-21T00:34:26.590Z,85.00
2017-09-21T00:36:54.207Z,83.70
2017-09-21T00:39:21.181Z,83.70
2017-09-21T00:41:48.100Z,83.90
2017-09-21T00:44:15.684Z,83.50
2017-09-21T00:46:43.296Z,83.70
2017-09-21T00:49:10.779Z,83.00
2017-09-21T00:51:37.676Z,83.00
2017-09-21T00:54:04.651Z,82.80
2017-09-21T00:56:32.402Z,85.80
2017-09-21T00:58:59.505Z,85.40
2017-09-21T01:01:26.529Z,86.90
2017-09-21T01:03:53.361Z,87.40
2017-09-21T01:06:20.205Z,87.80
2017-09-21T01:08:47.867Z,87.50
2017-09-21T01:11:14.783Z,87.50
2017-09-21T01:13:41.635Z,87.60
2017-09-21T01:16:08.574Z,87.90
2017-09-21T01:18:35.459Z,87.90
2017-09-21T01:21:03.068Z,86.50
2017-09-21T01:23:29.951Z,86.40
2017-09-21T01:25:57.426Z,84.10
2017-09-21T01:28:24.342Z,83.20
2017-09-21T01:30:51.282Z,82.80
2017-09-21T01:33:18.922Z,86.10
2017-09-21T01:35:45.838Z,86.10
2017-09-21T01:38:12.738Z,86.80
2017-09-21T01:40:39.601Z,86.60
2017-09-21T01:43:06.466Z,85.90
2017-09-21T01:45:33.361Z,85.50
2017-09-21T01:48:01.006Z,86.70
2017-09-21T01:50:27.928Z,86.70
2017-09-21T01:52:54.839Z,86.30
2017-09-21T01:55:21.699Z,86.10
2017-09-21T01:57:48.639Z,86.60
2017-09-21T02:00:15.543Z,86.70
2017-09-21T02:02:42.423Z,86.90
2017-09-21T02:05:09.278Z,86.40
2017-09-21T02:07:36.963Z,85.10
2017-09-21T02:10:04.640Z,85.40
2017-09-21T02:12:32.538Z,86.70
2017-09-21T02:14:59.439Z,86.70
2017-09-21T02:17:26.410Z,87.40
2017-09-21T02:19:53.249Z,86.90
2017-09-21T02:22:20.773Z,87.00
2017-09-21T02:24:48.188Z,87.40
2017-09-21T02:27:15.008Z,87.20
2017-09-21T02:29:41.808Z,87.80
2017-09-21T02:32:08.629Z,87.60
2017-09-21T02:34:35.434Z,86.80
2017-09-21T02:37:03.014Z,84.80
2017-09-21T02:39:29.899Z,84.80
2017-09-21T02:41:56.704Z,83.80
2017-09-21T02:44:24.260Z,83.90
2017-09-21T02:46:51.153Z,83.90
2017-09-21T02:49:18.756Z,83.10
2017-09-21T02:51:45.595Z,83.10
2017-09-21T02:54:13.176Z,84.30
2017-09-21T02:56:40.043Z,84.30
2017-09-21T02:59:06.887Z,85.30
2017-09-21T03:01:34.424Z,86.50
2017-09-21T03:04:01.285Z,86.40
2017-09-21T03:06:28.110Z,86.10
2017-09-21T03:08:54.983Z,86.30
2017-09-21T03:11:21.781Z,86.10
2017-09-21T03:13:48.689Z,86.80
2017-09-21T03:16:15.597Z,87.00
2017-09-21T03:18:42.423Z,87.20
2017-09-21T03:21:09.329Z,87.90
2017-09-21T03:23:36.139Z,88.20
2017-09-21T03:26:03.699Z,87.60
2017-09-21T03:28:30.537Z,87.50
2017-09-21T03:30:57.345Z,87.20
2017-09-21T03:33:24.157Z,86.30
2017-09-21T03:35:50.964Z,85.20
2017-09-21T03:38:17.869Z,84.90
2017-09-21T03:40:44.680Z,84.90
2017-09-21T03:43:11.473Z,85.50
2017-09-21T03:45:38.384Z,86.30
2017-09-21T03:48:05.936Z,87.30
2017-09-21T03:50:32.772Z,87.30
2017-09-21T03:52:59.592Z,87.40
2017-09-21T03:55:26.430Z,88.20
2017-09-21T03:57:54.064Z,88.90
2017-09-21T04:00:20.894Z,88.70
2017-09-21T04:02:47.709Z,87.90
2017-09-21T04:05:14.558Z,87.90
2017-09-21T04:07:42.172Z,88.10
2017-09-21T04:10:09.752Z,88.10
2017-09-21T04:12:37.301Z,87.60
2017-09-21T04:15:04.182Z,87.60
2017-09-21T04:17:31.064Z,86.60
2017-09-21T04:19:58.713Z,85.30
2017-09-21T04:22:25.596Z,85.30
2017-09-21T04:24:53.167Z,86.00
2017-09-21T04:27:20.732Z,87.00
2017-09-21T04:29:47.519Z,86.90
2017-09-21T04:32:15.072Z,87.50
2017-09-21T04:34:41.892Z,87.50
2017-09-21T04:37:08.736Z,87.80
2017-09-21T04:39:35.609Z,86.80
2017-09-21T04:42:03.868Z,86.10
2017-09-21T04:44:30.660Z,85.60
2017-09-21T04:46:57.520Z,86.50
2017-09-21T04:49:24.392Z,87.10
2017-09-21T04:51:51.223Z,86.70
2017-09-21T04:54:18.096Z,86.70
2017-09-21T04:56:45.043Z,86.70
2017-09-21T04:59:11.886Z,86.30
2017-09-21T05:01:39.513Z,86.40
2017-09-21T05:04:06.370Z,85.60
2017-09-21T05:06:33.230Z,86.10
2017-09-21T05:09:00.120Z,87.60
2017-09-21T05:11:26.924Z,87.60
2017-09-21T05:13:53.716Z,87.50
2017-09-21T05:16:20.520Z,87.10
2017-09-21T05:18:47.331Z,86.70
2017-09-21T05:21:15.011Z,86.40
2017-09-21T05:23:42.572Z,86.40
2017-09-21T05:26:09.400Z,86.40
2017-09-21T05:28:36.996Z,87.50
2017-09-21T05:31:04.567Z,87.50
2017-09-21T05:33:32.140Z,88.10
2017-09-21T05:35:58.991Z,88.00
2017-09-21T05:38:25.823Z,88.10
2017-09-21T05:40:52.691Z,87.80
2017-09-21T05:43:19.525Z,87.50
2017-09-21T05:45:46.332Z,86.50
2017-09-21T05:48:13.163Z,87.40
2017-09-21T05:50:39.956Z,87.60
2017-09-21T05:53:06.772Z,87.70
2017-09-21T05:55:33.581Z,87.40
2017-09-21T05:58:00.415Z,87.80
2017-09-21T06:00:28.176Z,88.00
2017-09-21T06:02:55.025Z,87.70
2017-09-21T06:05:21.902Z,88.70
2017-09-21T06:07:48.701Z,88.00
2017-09-21T06:10:15.538Z,88.80
2017-09-21T06:12:42.380Z,87.60
2017-09-21T06:15:09.204Z,87.00
2017-09-21T06:17:36.818Z,89.00
2017-09-21T06:20:03.666Z,89.00
2017-09-21T06:22:30.537Z,89.00
2017-09-21T06:24:57.372Z,88.70
2017-09-21T06:27:24.946Z,87.20
2017-09-21T06:29:52.512Z,86.50
2017-09-21T06:32:19.318Z,86.50
2017-09-21T06:34:46.147Z,87.00
2017-09-21T06:37:13.732Z,87.10
2017-09-21T06:39:40.546Z,87.00
2017-09-21T06:42:07.384Z,87.80
2017-09-21T06:44:34.236Z,87.30
2017-09-21T06:47:01.093Z,87.70
2017-09-21T06:49:27.947Z,87.90
2017-09-21T06:51:54.790Z,87.70
2017-09-21T06:54:22.409Z,86.90
2017-09-21T06:56:49.189Z,86.80
2017-09-21T06:59:16.006Z,87.80
2017-09-21T07:01:42.889Z,88.30
2017-09-21T07:04:09.730Z,87.30
2017-09-21T07:06:36.560Z,87.50
2017-09-21T07:09:04.131Z,89.80
2017-09-21T07:11:30.968Z,89.80
2017-09-21T07:13:57.801Z,88.00
2017-09-21T07:16:24.632Z,90.00
2017-09-21T07:18:52.184Z,90.50
2017-09-21T07:21:19.006Z,90.50
2017-09-21T07:23:45.859Z,89.10
2017-09-21T07:26:12.685Z,88.00
2017-09-21T07:28:40.227Z,89.70
2017-09-21T07:31:07.043Z,89.70
2017-09-21T07:33:33.951Z,90.00
2017-09-21T07:36:00.764Z,88.60
2017-09-21T07:38:27.610Z,88.40
2017-09-21T07:40:55.177Z,89.30
2017-09-21T07:43:22.736Z,87.80
2017-09-21T07:45:49.582Z,87.70
2017-09-21T07:48:16.391Z,87.30
2017-09-21T07:50:44.028Z,86.90
2017-09-21T07:53:10.947Z,86.90
2017-09-21T07:55:37.770Z,86.30
2017-09-21T07:58:04.637Z,86.10
2017-09-21T08:00:31.507Z,86.20
2017-09-21T08:02:59.126Z,89.00
2017-09-21T08:05:25.962Z,88.20
2017-09-21T08:07:53.539Z,88.80
2017-09-21T08:10:21.115Z,87.00
2017-09-21T08:12:48.755Z,85.50
2017-09-21T08:15:15.610Z,85.50
2017-09-21T08:17:42.491Z,85.40
2017-09-21T08:20:09.301Z,85.60
2017-09-21T08:22:36.172Z,83.80
2017-09-21T08:25:03.026Z,85.70
2017-09-21T08:27:29.922Z,85.50
2017-09-21T08:29:56.755Z,84.00
2017-09-21T08:32:23.587Z,84.30
2017-09-21T08:34:50.418Z,83.50
2017-09-21T08:37:17.996Z,82.10
2017-09-21T08:39:44.881Z,82.10
2017-09-21T08:42:12.479Z,84.80
2017-09-21T08:44:39.276Z,84.80
2017-09-21T08:47:06.063Z,82.50
2017-09-21T08:49:32.896Z,81.20
2017-09-21T08:51:59.697Z,82.30
2017-09-21T08:54:27.269Z,80.30
2017-09-21T08:56:54.823Z,80.50
2017-09-21T08:59:21.615Z,80.50
2017-09-21T09:01:49.181Z,78.70
2017-09-21T09:04:16.759Z,78.20
2017-09-21T09:06:44.316Z,78.50
2017-09-21T09:09:11.249Z,78.50
2017-09-21T09:11:38.100Z,77.80
2017-09-21T09:14:04.904Z,77.00
2017-09-21T09:16:31.742Z,74.50
2017-09-21T09:18:58.624Z,75.40
2017-09-21T09:21:25.474Z,74.40
2017-09-21T09:23:52.308Z,75.10
2017-09-21T09:26:19.178Z,75.60
2017-09-21T09:28:45.971Z,72.80
2017-09-21T09:31:12.786Z,72.10
2017-09-21T09:33:39.602Z,70.50
2017-09-21T09:36:06.412Z,70.80
2017-09-21T09:38:33.279Z,71.00
2017-09-21T09:41:00.124Z,68.30
2017-09-21T09:43:26.931Z,68.70
2017-09-21T09:45:53.727Z,67.90
2017-09-21T09:48:21.311Z,66.50
2017-09-21T09:50:48.166Z,66.60
2017-09-21T09:53:15.704Z,67.40
2017-09-21T09:55:42.531Z,67.30
2017-09-21T09:58:09.389Z,66.80
2017-09-21T10:00:36.227Z,65.60
2017-09-21T10:03:03.776Z,66.50
2017-09-21T10:05:30.587Z,66.40
2017-09-21T10:07:57.393Z,65.90
2017-09-21T10:10:24.209Z,65.40
2017-09-21T10:12:51.022Z,62.60
2017-09-21T10:15:17.870Z,62.60
2017-09-21T10:17:44.806Z,63.20
2017-09-21T10:20:11.618Z,60.20
2017-09-21T10:22:39.180Z,62.00
2017-09-21T10:25:06.060Z,61.80
2017-09-21T10:27:32.922Z,60.40
2017-09-21T10:30:00.524Z,61.50
2017-09-21T10:32:27.364Z,61.20
2017-09-21T10:34:54.956Z,56.60
2017-09-21T10:37:21.752Z,56.40
2017-09-21T10:39:48.559Z,58.70
2017-09-21T10:42:16.100Z,58.30
2017-09-21T10:44:42.923Z,58.30
2017-09-21T10:47:09.740Z,58.50
2017-09-21T10:49:36.548Z,57.30
2017-09-21T10:52:03.393Z,58.40
2017-09-21T10:54:30.250Z,58.70
2017-09-21T10:56:57.146Z,59.00
2017-09-21T10:59:24.043Z,58.80
2017-09-21T11:01:50.861Z,59.30
2017-09-21T11:04:17.693Z,59.10
2017-09-21T11:06:45.297Z,57.60
2017-09-21T11:09:12.144Z,57.50
2017-09-21T11:11:38.992Z,56.00
2017-09-21T11:14:06.609Z,55.50
2017-09-21T11:16:33.518Z,55.40
2017-09-21T11:19:00.433Z,55.60
2017-09-21T11:21:27.258Z,56.40
2017-09-21T11:23:54.821Z,53.20
2017-09-21T11:26:22.423Z,54.90
2017-09-21T11:28:49.260Z,54.80
2017-09-21T11:31:16.784Z,53.90
2017-09-21T11:33:43.694Z,53.80
2017-09-21T11:36:10.557Z,53.80
2017-09-21T11:38:38.370Z,52.90
2017-09-21T11:41:05.313Z,52.80
2017-09-21T11:43:32.922Z,52.70
2017-09-21T11:45:59.869Z,52.70
2017-09-21T11:48:26.713Z,53.50
2017-09-21T11:50:54.343Z,50.70
2017-09-21T11:53:21.181Z,50.70
2017-09-21T11:55:48.069Z,51.50
2017-09-21T11:58:14.959Z,52.60
2017-09-21T12:00:41.832Z,52.70
2017-09-21T12:03:09.455Z,54.30
2017-09-21T12:05:36.295Z,54.20
2017-09-21T12:08:03.120Z,53.50
2017-09-21T12:10:29.999Z,54.70
2017-09-21T12:12:57.579Z,55.10
2017-09-21T12:15:25.170Z,55.80
2017-09-21T12:17:52.730Z,54.50
2017-09-21T12:20:19.588Z,54.40
2017-09-21T12:22:46.462Z,54.20
2017-09-21T12:25:14.080Z,53.70
2017-09-21T12:27:40.921Z,53.70
2017-09-21T12:30:07.763Z,52.00
2017-09-21T12:32:35.339Z,51.90
2017-09-21T12:35:04.591Z,51.50
2017-09-21T12:37:32.277Z,51.40
2017-09-21T12:39:59.143Z,51.40
2017-09-21T12:42:25.994Z,51.30
2017-09-21T12:44:53.614Z,52.50
2017-09-21T12:47:20.462Z,52.50
2017-09-21T12:49:47.333Z,50.70
2017-09-21T12:52:14.162Z,52.10
2017-09-21T12:54:41.000Z,53.20
2017-09-21T12:57:07.968Z,50.80
2017-09-21T12:59:34.819Z,50.30
2017-09-21T13:02:03.040Z,48.40
2017-09-21T13:04:29.899Z,48.30
2017-09-21T13:06:56.735Z,48.60
2017-09-21T13:09:23.639Z,50.20
2017-09-21T13:11:50.479Z,50.20
2017-09-21T13:14:17.325Z,49.70
2017-09-21T13:16:44.168Z,47.30
2017-09-21T13:19:11.014Z,46.40
2017-09-21T13:21:37.872Z,48.00
2017-09-21T13:24:04.754Z,48.30
2017-09-21T13:26:32.348Z,49.70
2017-09-21T13:28:59.251Z,49.70
2017-09-21T13:31:28.475Z,50.00
2017-09-21T13:33:55.433Z,50.80
2017-09-21T13:36:22.264Z,51.10
2017-09-21T13:38:49.197Z,50.30
2017-09-21T13:41:16.747Z,49.90
2017-09-21T13:43:43.644Z,49.90
2017-09-21T13:46:11.219Z,49.90
2017-09-21T13:48:38.772Z,48.90
2017-09-21T13:51:06.443Z,48.40
2017-09-21T13:53:33.350Z,48.40
2017-09-21T13:56:00.235Z,48.70
2017-09-21T13:58:27.062Z,51.40
2017-09-21T14:00:54.634Z,50.60
2017-09-21T14:03:22.218Z,51.20
2017-09-21T14:05:49.041Z,51.10
2017-09-21T14:08:15.859Z,51.30
2017-09-21T14:10:42.686Z,50.90
2017-09-21T14:13:10.321Z,52.10
2017-09-21T14:15:37.125Z,52.10
2017-09-21T14:18:03.982Z,49.70
2017-09-21T14:20:30.835Z,51.00
2017-09-21T14:22:57.697Z,50.30
2017-09-21T14:25:24.529Z,50.50
2017-09-21T14:27:52.726Z,51.20
2017-09-21T14:30:20.327Z,51.00
2017-09-21T14:32:47.128Z,51.00
2017-09-21T14:35:13.941Z,51.70
2017-09-21T14:37:40.812Z,51.10
2017-09-21T14:40:07.757Z,50.40
2017-09-21T14:42:34.629Z,49.90
2017-09-21T14:45:01.494Z,49.50
2017-09-21T14:47:28.296Z,50.40
2017-09-21T14:49:55.224Z,51.20
2017-09-21T14:52:22.071Z,50.80
2017-09-21T14:54:48.893Z,50.60
2017-09-21T14:57:15.763Z,51.30
2017-09-21T14:59:42.595Z,52.20
2017-09-21T15:02:10.212Z,52.20
2017-09-21T15:04:37.034Z,52.20
2017-09-21T15:07:04.556Z,52.50
2017-09-21T15:09:31.373Z,52.50
2017-09-21T15:11:58.223Z,54.60
2017-09-21T15:14:25.794Z,52.40
2017-09-21T15:16:53.362Z,53.20
2017-09-21T15:19:20.197Z,53.20
2017-09-21T15:21:47.064Z,53.10
2017-09-21T15:24:13.898Z,53.70
2017-09-21T15:26:40.758Z,53.60
2017-09-21T15:29:07.587Z,54.40
2017-09-21T15:31:35.160Z,54.40
2017-09-21T15:34:02.735Z,54.90
2017-09-21T15:36:30.292Z,53.80
2017-09-21T15:38:57.133Z,53.80
2017-09-21T15:41:23.938Z,55.20
2017-09-21T15:43:51.534Z,55.40
2017-09-21T15:46:18.415Z,55.40
2017-09-21T15:48:45.244Z,55.60
2017-09-21T15:51:12.867Z,55.60
2017-09-21T15:53:39.727Z,55.60
2017-09-21T15:56:06.534Z,56.00
2017-09-21T15:58:34.100Z,57.10
2017-09-21T16:01:00.912Z,56.90
2017-09-21T16:03:27.806Z,56.70
2017-09-21T16:05:54.654Z,56.20
2017-09-21T16:08:21.512Z,56.40
2017-09-21T16:10:48.391Z,57.20
2017-09-21T16:13:15.369Z,57.60
2017-09-21T16:15:42.203Z,56.90
2017-09-21T16:18:09.101Z,56.90
2017-09-21T16:20:36.651Z,57.30
2017-09-21T16:23:03.473Z,57.30
2017-09-21T16:25:30.289Z,57.80
2017-09-21T16:27:57.104Z,58.00
2017-09-21T16:30:23.918Z,58.50
2017-09-21T16:32:50.711Z,59.00
2017-09-21T16:35:17.547Z,59.10
2017-09-21T16:37:45.146Z,59.60
2017-09-21T16:40:12.034Z,59.60
2017-09-21T16:42:38.886Z,60.30
2017-09-21T16:45:05.701Z,60.40
2017-09-21T16:47:32.511Z,60.30
2017-09-21T16:49:59.348Z,60.70
2017-09-21T16:52:26.155Z,61.20
2017-09-21T16:54:53.215Z,60.80
2017-09-21T16:57:20.017Z,61.10
2017-09-21T16:59:47.583Z,64.10
2017-09-21T17:02:14.468Z,63.40
2017-09-21T17:04:42.040Z,63.80
2017-09-21T17:07:09.674Z,63.70
2017-09-21T17:09:37.466Z,63.70
2017-09-21T17:12:04.293Z,63.80
2017-09-21T17:14:31.124Z,64.80
2017-09-21T17:16:58.768Z,64.00
2017-09-21T17:19:25.628Z,64.00
2017-09-21T17:21:53.381Z,65.20
2017-09-21T17:24:20.915Z,65.50
2017-09-21T17:26:47.877Z,65.90
2017-09-21T17:29:14.766Z,65.60
2017-09-21T17:31:41.626Z,65.90
2017-09-21T17:34:08.511Z,65.80
2017-09-21T17:36:35.386Z,65.10
2017-09-21T17:39:02.295Z,65.90
2017-09-21T17:41:29.973Z,66.70
2017-09-21T17:43:57.661Z,68.30
2017-09-21T17:46:25.246Z,69.60
2017-09-21T17:48:52.108Z,69.50
2017-09-21T17:51:18.967Z,70.00
2017-09-21T17:53:46.625Z,71.70
2017-09-21T17:56:13.491Z,71.50
2017-09-21T17:58:40.369Z,72.40
2017-09-21T18:01:07.938Z,69.70
2017-09-21T18:03:34.827Z,69.50
2017-09-21T18:06:01.749Z,71.40
2017-09-21T18:08:28.603Z,72.90
2017-09-21T18:10:55.482Z,73.80
2017-09-21T18:13:23.094Z,75.30
2017-09-21T18:15:49.950Z,74.60
2017-09-21T18:18:16.832Z,74.90
2017-09-21T18:20:43.762Z,74.10
2017-09-21T18:23:11.337Z,74.00
2017-09-21T18:25:39.019Z,73.60
2017-09-21T18:28:05.916Z,73.60
2017-09-21T18:30:32.799Z,73.60
2017-09-21T18:32:59.789Z,73.70
2017-09-21T18:35:27.436Z,76.30
2017-09-21T18:37:54.351Z,76.30
2017-09-21T18:40:21.294Z,76.60
2017-09-21T18:42:48.374Z,76.80
2017-09-21T18:45:16.244Z,76.80
2017-09-21T18:47:44.743Z,76.80
2017-09-21T18:50:11.619Z,76.30
2017-09-21T18:52:39.204Z,75.10
2017-09-21T18:55:06.953Z,74.80
2017-09-21T18:57:33.817Z,74.80
2017-09-21T19:00:00.751Z,74.20
2017-09-21T19:02:27.606Z,73.50
2017-09-21T19:04:54.514Z,72.90
2017-09-21T19:07:21.899Z,73.20
2017-09-21T19:09:48.825Z,73.90
2017-09-21T19:12:16.681Z,74.80
2017-09-21T19:14:43.869Z,77.30
2017-09-21T19:17:10.814Z,77.50
2017-09-21T19:19:37.988Z,78.30
2017-09-21T19:22:05.061Z,78.80
2017-09-21T19:24:31.932Z,78.50
2017-09-21T19:26:58.818Z,77.40
2017-09-21T19:29:25.705Z,75.90
2017-09-21T19:31:53.731Z,75.40
2017-09-21T19:34:20.666Z,75.30
2017-09-21T19:36:47.936Z,75.10
2017-09-21T19:39:14.999Z,75.00
2017-09-21T19:41:41.880Z,75.10
2017-09-21T19:44:09.498Z,76.70
2017-09-21T19:46:36.581Z,78.40
2017-09-21T19:49:04.395Z,78.80
2017-09-21T19:51:31.568Z,78.70
2017-09-21T19:53:58.635Z,80.30
2017-09-21T19:56:25.682Z,80.40
2017-09-21T19:58:53.464Z,79.80
2017-09-21T20:01:21.278Z,78.60
2017-09-21T20:03:48.194Z,78.60
2017-09-21T20:06:15.138Z,79.00
2017-09-21T20:08:42.222Z,78.70
2017-09-21T20:11:09.704Z,78.70
2017-09-21T20:13:37.488Z,79.60
2017-09-21T20:16:05.096Z,79.20
2017-09-21T20:18:32.020Z,79.20
2017-09-21T20:20:58.867Z,79.80
2017-09-21T20:23:25.856Z,78.60
2017-09-21T20:25:53.507Z,78.40
2017-09-21T20:28:20.538Z,78.40
2017-09-21T20:30:47.674Z,77.90
2017-09-21T20:33:15.377Z,78.60
2017-09-21T20:35:42.239Z,78.70
2017-09-21T20:38:09.178Z,78.80
2017-09-21T20:40:36.879Z,79.20
2017-09-21T20:43:03.845Z,79.10
2017-09-21T20:45:30.662Z,80.20
2017-09-21T20:47:57.703Z,80.00
2017-09-21T20:50:24.652Z,81.20
2017-09-21T20:52:51.720Z,81.20
2017-09-21T20:55:18.731Z,80.60
2017-09-21T20:57:45.711Z,80.20
2017-09-21T21:00:15.654Z,79.20
2017-09-21T21:02:43.390Z,79.00
2017-09-21T21:05:10.313Z,78.90
2017-09-21T21:07:37.330Z,79.00
2017-09-21T21:10:04.188Z,79.40
2017-09-21T21:12:31.167Z,79.10
2017-09-21T21:14:58.904Z,81.00
2017-09-21T21:17:26.990Z,80.90
2017-09-21T21:19:53.909Z,81.80
2017-09-21T21:22:21.614Z,81.20
2017-09-21T21:24:48.538Z,81.20
2017-09-21T21:27:15.598Z,81.30
2017-09-21T21:29:45.085Z,80.80
2017-09-21T21:32:12.672Z,81.60
2017-09-21T21:34:39.639Z,81.60
2017-09-21T21:37:06.480Z,82.20
2017-09-21T21:39:33.636Z,82.10
2017-09-21T21:42:00.525Z,81.30
2017-09-21T21:44:27.476Z,80.90
2017-09-21T21:46:54.463Z,81.00
2017-09-21T21:49:21.397Z,80.30
2017-09-21T21:51:48.407Z,79.90
2017-09-21T21:54:15.401Z,79.40
2017-09-21T21:56:43.137Z,79.90
2017-09-21T21:59:10.010Z,79.80
2017-09-21T22:01:37.883Z,80.60
2017-09-21T22:04:04.847Z,80.50
2017-09-21T22:06:31.849Z,80.00
2017-09-21T22:08:59.641Z,78.40
2017-09-21T22:11:26.694Z,78.20
2017-09-21T22:13:54.538Z,78.40
2017-09-21T22:16:21.546Z,78.30
2017-09-21T22:18:50.314Z,78.10
2017-09-21T22:21:17.319Z,78.10
2017-09-21T22:23:44.971Z,78.40
2017-09-21T22:26:12.014Z,78.40
2017-09-21T22:28:38.969Z,78.40
2017-09-21T22:31:05.891Z,78.30
2017-09-21T22:33:33.452Z,78.80
2017-09-21T22:36:00.278Z,78.70
2017-09-21T22:38:27.135Z,78.60
2017-09-21T22:40:55.626Z,79.70
2017-09-21T22:43:22.490Z,79.70
2017-09-21T22:45:49.349Z,80.50
2017-09-21T22:48:17.307Z,80.50
2017-09-21T22:50:45.260Z,80.70
2017-09-21T22:53:12.094Z,80.80
2017-09-21T22:55:38.954Z,80.40
2017-09-21T22:58:05.739Z,81.40
2017-09-21T23:00:32.626Z,81.90
2017-09-21T23:03:00.232Z,82.80
2017-09-21T23:05:27.035Z,82.80
2017-09-21T23:07:53.927Z,82.70
2017-09-21T23:10:21.478Z,82.70
2017-09-21T23:12:48.352Z,82.70
2017-09-21T23:15:15.169Z,83.80
2017-09-21T23:17:42.010Z,83.70
2017-09-21T23:20:08.793Z,84.30
2017-09-21T23:22:35.592Z,84.80
2017-09-21T23:25:02.470Z,85.10
2017-09-21T23:27:29.368Z,83.90
2017-09-21T23:29:56.219Z,84.50
2017-09-21T23:32:23.034Z,82.70
2017-09-21T23:34:49.880Z,82.10
2017-09-21T23:37:16.703Z,82.30
2017-09-21T23:39:43.604Z,81.90
2017-09-21T23:42:10.459Z,81.80
2017-09-21T23:44:37.277Z,83.00
2017-09-21T23:47:04.167Z,82.50
2017-09-21T23:49:31.052Z,81.70
2017-09-21T23:51:57.890Z,81.50
2017-09-21T23:54:25.110Z,82.00
2017-09-21T23:56:52.051Z,81.60
2017-09-21T23:59:19.118Z,82.80
